createdAt,value
2018-03-20T00:01:56.708Z,11.85
2018-03-20T00:04:22.936Z,12.48
2018-03-20T00:06:49.207Z,10.93
2018-03-20T00:09:16.208Z,10.73
2018-03-20T00:11:42.476Z,13.05
2018-03-20T00:14:09.488Z,9.77
2018-03-20T00:16:35.752Z,8.30
2018-03-20T00:19:02.777Z,12.13
2018-03-20T00:21:29.036Z,10.52
2018-03-20T00:23:56.047Z,11.27
2018-03-20T00:26:29.480Z,7.70
2018-03-20T00:28:56.480Z,7.78
2018-03-20T00:31:22.754Z,9.07
2018-03-20T00:33:49.800Z,9.05
2018-03-20T00:36:16.048Z,8.35
2018-03-20T00:38:42.308Z,10.98
2018-03-20T00:41:08.545Z,6.68
2018-03-20T00:43:34.796Z,5.65
2018-03-20T00:46:01.069Z,8.68
2018-03-20T00:48:27.315Z,11.20
2018-03-20T00:50:53.559Z,10.43
2018-03-20T00:53:19.848Z,8.18
2018-03-20T00:55:46.119Z,6.72
2018-03-20T00:58:12.396Z,9.98
2018-03-20T01:00:39.480Z,8.82
2018-03-20T01:03:05.713Z,9.15
2018-03-20T01:05:32.008Z,11.12
2018-03-20T01:07:58.977Z,9.02
2018-03-20T01:10:25.305Z,7.68
2018-03-20T01:12:51.564Z,9.48
2018-03-20T01:15:17.877Z,8.45
2018-03-20T01:17:44.115Z,7.43
2018-03-20T01:20:10.380Z,6.43
2018-03-20T01:22:36.744Z,6.97
2018-03-20T01:25:03.012Z,7.95
2018-03-20T01:27:29.687Z,9.20
2018-03-20T01:29:56.688Z,11.18
2018-03-20T01:32:22.950Z,8.57
2018-03-20T01:34:49.195Z,15.07
2018-03-20T01:37:15.427Z,6.32
2018-03-20T01:39:42.437Z,9.85
2018-03-20T01:42:08.693Z,5.82
2018-03-20T01:44:34.972Z,8.48
2018-03-20T01:47:01.231Z,12.32
2018-03-20T01:49:27.530Z,6.97
2018-03-20T01:51:53.776Z,16.75
2018-03-20T01:54:20.011Z,9.50
2018-03-20T01:56:46.273Z,9.05
2018-03-20T01:59:12.526Z,10.18
2018-03-20T02:01:38.836Z,10.32
2018-03-20T02:04:05.632Z,9.70
2018-03-20T02:06:31.960Z,10.50
2018-03-20T02:08:58.200Z,11.23
2018-03-20T02:11:24.488Z,8.70
2018-03-20T02:13:51.491Z,12.95
2018-03-20T02:16:17.737Z,8.73
2018-03-20T02:18:44.768Z,13.38
2018-03-20T02:21:11.015Z,8.10
2018-03-20T02:23:37.267Z,11.07
2018-03-20T02:26:04.302Z,8.20
2018-03-20T02:28:31.320Z,12.27
2018-03-20T02:30:57.576Z,10.40
2018-03-20T02:33:24.569Z,9.20
2018-03-20T02:35:50.817Z,10.10
2018-03-20T02:38:17.111Z,8.50
2018-03-20T02:40:43.357Z,12.35
2018-03-20T02:43:09.652Z,7.30
2018-03-20T02:45:36.660Z,9.55
2018-03-20T02:48:02.908Z,11.98
2018-03-20T02:50:29.179Z,11.60
2018-03-20T02:52:55.426Z,8.30
2018-03-20T02:55:21.677Z,11.43
2018-03-20T02:57:47.911Z,11.85
2018-03-20T03:00:14.182Z,9.32
2018-03-20T03:02:41.296Z,13.60
2018-03-20T03:05:07.603Z,11.23
2018-03-20T03:07:34.102Z,11.52
2018-03-20T03:10:00.365Z,9.75
2018-03-20T03:12:26.655Z,14.05
2018-03-20T03:14:53.662Z,11.00
2018-03-20T03:17:19.927Z,9.57
2018-03-20T03:19:46.904Z,12.35
2018-03-20T03:22:13.160Z,13.70
2018-03-20T03:24:39.415Z,9.88
2018-03-20T03:27:05.673Z,11.45
2018-03-20T03:29:31.916Z,8.25
2018-03-20T03:31:58.179Z,7.15
2018-03-20T03:34:24.431Z,12.40
2018-03-20T03:36:50.697Z,11.40
2018-03-20T03:39:16.947Z,12.88
2018-03-20T03:41:43.196Z,8.45
2018-03-20T03:44:09.453Z,15.38
2018-03-20T03:46:35.703Z,14.27
2018-03-20T03:49:02.724Z,15.65
2018-03-20T03:51:28.960Z,11.80
2018-03-20T03:53:55.203Z,14.75
2018-03-20T03:56:22.246Z,10.40
2018-03-20T03:58:48.500Z,9.93
2018-03-20T04:01:15.012Z,16.90
2018-03-20T04:03:42.004Z,13.62
2018-03-20T04:06:08.244Z,14.18
2018-03-20T04:08:34.503Z,11.23
2018-03-20T04:11:00.741Z,12.68
2018-03-20T04:13:27.745Z,11.80
2018-03-20T04:15:53.992Z,11.05
2018-03-20T04:18:20.234Z,10.25
2018-03-20T04:20:46.520Z,13.62
2018-03-20T04:23:12.775Z,10.05
2018-03-20T04:25:39.146Z,13.50
2018-03-20T04:28:05.385Z,7.78
2018-03-20T04:30:31.652Z,11.85
2018-03-20T04:32:57.959Z,11.45
2018-03-20T04:35:24.223Z,10.20
2018-03-20T04:37:50.492Z,10.30
2018-03-20T04:40:16.746Z,12.45
2018-03-20T04:42:42.991Z,19.23
2018-03-20T04:45:09.245Z,13.30
2018-03-20T04:47:35.515Z,14.02
2018-03-20T04:50:02.550Z,10.15
2018-03-20T04:52:29.566Z,12.37
2018-03-20T04:54:55.817Z,12.40
2018-03-20T04:57:22.091Z,11.80
2018-03-20T04:59:48.348Z,13.73
2018-03-20T05:02:14.616Z,13.23
2018-03-20T05:04:41.596Z,10.93
2018-03-20T05:07:07.832Z,14.35
2018-03-20T05:09:34.094Z,9.02
2018-03-20T05:12:00.348Z,11.15
2018-03-20T05:14:27.348Z,10.63
2018-03-20T05:16:53.672Z,12.13
2018-03-20T05:22:33.208Z,12.20
2018-03-20T05:24:59.630Z,11.75
2018-03-20T05:27:25.934Z,15.77
2018-03-20T05:29:52.303Z,11.00
2018-03-20T05:32:18.629Z,21.17
2018-03-20T05:34:44.900Z,14.02
2018-03-20T05:37:11.192Z,13.13
2018-03-20T05:39:37.500Z,9.63
2018-03-20T05:42:04.600Z,11.65
2018-03-20T05:44:30.900Z,10.38
2018-03-20T05:50:14.123Z,12.80
2018-03-20T05:52:40.411Z,14.27
2018-03-20T05:55:06.699Z,11.93
2018-03-20T05:57:33.675Z,11.00
2018-03-20T05:59:59.965Z,8.98
2018-03-20T06:02:26.993Z,12.00
2018-03-20T06:04:53.256Z,12.15
2018-03-20T06:07:20.269Z,9.95
2018-03-20T06:09:46.516Z,14.32
2018-03-20T06:12:12.784Z,11.38
2018-03-20T06:14:39.055Z,13.65
2018-03-20T06:17:05.319Z,9.88
2018-03-20T06:19:32.344Z,13.32
2018-03-20T06:21:58.612Z,12.35
2018-03-20T06:24:25.233Z,11.82
2018-03-20T06:26:51.503Z,30.85
2018-03-20T06:29:17.761Z,14.43
2018-03-20T06:31:44.068Z,13.75
2018-03-20T06:34:10.332Z,15.25
2018-03-20T06:39:10.988Z,15.75
2018-03-20T06:41:38.040Z,10.25
2018-03-20T06:44:05.020Z,11.82
2018-03-20T06:46:31.315Z,12.02
2018-03-20T06:48:58.324Z,13.13
2018-03-20T06:51:24.565Z,11.82
2018-03-20T06:53:50.821Z,12.23
2018-03-20T06:56:17.795Z,13.68
2018-03-20T06:58:44.048Z,19.62
2018-03-20T07:01:10.317Z,12.52
2018-03-20T07:03:36.583Z,20.30
2018-03-20T07:06:02.952Z,15.18
2018-03-20T07:08:29.227Z,13.07
2018-03-20T07:10:55.504Z,14.18
2018-03-20T07:13:21.776Z,39.33
2018-03-20T07:15:48.020Z,17.65
2018-03-20T07:18:15.030Z,15.93
2018-03-20T07:20:41.275Z,13.27
2018-03-20T07:23:07.612Z,16.17
2018-03-20T07:25:34.691Z,14.02
2018-03-20T07:28:01.656Z,14.30
2018-03-20T07:30:28.253Z,16.25
2018-03-20T07:32:54.506Z,13.57
2018-03-20T07:35:20.736Z,16.15
2018-03-20T07:37:47.001Z,20.20
2018-03-20T07:40:13.263Z,18.00
2018-03-20T07:42:40.272Z,19.50
2018-03-20T07:45:06.512Z,16.85
2018-03-20T07:47:32.774Z,12.88
2018-03-20T07:49:59.784Z,15.60
2018-03-20T07:52:26.062Z,18.35
2018-03-20T07:54:52.385Z,16.87
2018-03-20T07:57:19.388Z,24.40
2018-03-20T07:59:45.660Z,21.30
2018-03-20T08:02:12.644Z,16.73
2018-03-20T08:04:38.976Z,21.15
2018-03-20T08:07:05.228Z,15.77
2018-03-20T08:09:31.523Z,19.05
2018-03-20T08:11:57.788Z,20.37
2018-03-20T08:14:24.096Z,14.55
2018-03-20T08:16:50.377Z,24.30
2018-03-20T08:19:17.389Z,17.90
2018-03-20T08:21:43.619Z,24.67
2018-03-20T08:24:09.892Z,18.98
2018-03-20T08:26:36.891Z,19.52
2018-03-20T08:29:03.220Z,20.08
2018-03-20T08:31:29.447Z,25.35
2018-03-20T08:33:55.705Z,37.83
2018-03-20T08:36:22.077Z,25.17
2018-03-20T08:38:48.411Z,24.73
2018-03-20T08:41:14.716Z,25.50
2018-03-20T08:43:41.708Z,23.45
2018-03-20T08:46:07.952Z,24.35
2018-03-20T08:48:34.228Z,35.97
2018-03-20T08:51:01.208Z,28.52
2018-03-20T08:53:27.508Z,31.37
2018-03-20T08:55:53.797Z,27.75
2018-03-20T08:58:20.039Z,29.65
2018-03-20T09:00:46.324Z,37.95
2018-03-20T09:03:13.428Z,30.33
2018-03-20T09:05:39.692Z,47.05
2018-03-20T09:08:05.993Z,32.22
2018-03-20T09:10:33.000Z,38.35
2018-03-20T09:12:59.332Z,36.03
2018-03-20T09:15:25.603Z,33.45
2018-03-20T09:17:51.928Z,26.50
2018-03-20T09:20:18.155Z,25.25
2018-03-20T09:22:45.185Z,29.50
2018-03-20T09:25:11.463Z,24.95
2018-03-20T09:27:37.709Z,26.40
2018-03-20T09:30:04.017Z,37.15
2018-03-20T09:32:30.296Z,28.40
2018-03-20T09:34:56.542Z,32.20
2018-03-20T09:37:22.852Z,28.62
2018-03-20T09:39:49.104Z,27.27
2018-03-20T09:42:15.379Z,21.95
2018-03-20T09:44:41.620Z,24.70
2018-03-20T09:47:07.981Z,19.77
2018-03-20T09:49:34.333Z,24.10
2018-03-20T09:52:01.382Z,21.83
2018-03-20T09:54:28.432Z,25.27
2018-03-20T09:56:55.517Z,21.70
2018-03-20T09:59:22.605Z,23.80
2018-03-20T10:01:48.893Z,17.20
2018-03-20T10:04:15.167Z,19.07
2018-03-20T10:06:41.439Z,21.23
2018-03-20T10:09:07.704Z,15.57
2018-03-20T10:11:33.964Z,16.20
2018-03-20T10:14:00.228Z,19.03
2018-03-20T10:16:26.496Z,15.90
2018-03-20T10:18:52.865Z,16.77
2018-03-20T10:21:19.888Z,14.57
2018-03-20T10:23:46.245Z,12.48
2018-03-20T10:26:13.293Z,11.57
2018-03-20T10:28:40.337Z,14.82
2018-03-20T10:31:06.624Z,11.23
2018-03-20T10:33:32.914Z,18.55
2018-03-20T10:35:59.213Z,8.75
2018-03-20T10:38:25.495Z,13.30
2018-03-20T10:40:51.755Z,12.52
2018-03-20T10:43:18.078Z,13.07
2018-03-20T10:45:44.360Z,9.95
2018-03-20T10:48:11.351Z,13.60
2018-03-20T10:50:37.624Z,10.50
2018-03-20T10:53:03.937Z,7.13
2018-03-20T10:55:30.248Z,8.60
2018-03-20T10:57:56.499Z,5.93
2018-03-20T11:00:28.809Z,11.93
2018-03-20T11:02:55.156Z,13.93
2018-03-20T11:05:21.412Z,9.37
2018-03-20T11:07:48.004Z,6.43
2018-03-20T11:10:14.292Z,7.23
2018-03-20T11:12:40.558Z,17.20
2018-03-20T11:15:06.837Z,7.45
2018-03-20T11:17:33.165Z,4.65
2018-03-20T11:19:59.432Z,7.65
2018-03-20T11:22:25.681Z,11.57
2018-03-20T11:24:51.928Z,6.60
2018-03-20T11:27:18.233Z,3.40
2018-03-20T11:29:44.501Z,3.90
2018-03-20T11:32:10.787Z,3.37
2018-03-20T11:34:37.796Z,6.72
2018-03-20T11:37:04.122Z,6.25
2018-03-20T11:39:30.400Z,5.95
2018-03-20T11:41:56.680Z,4.70
2018-03-20T11:44:22.973Z,5.00
2018-03-20T11:46:49.236Z,6.50
2018-03-20T11:49:15.577Z,3.43
2018-03-20T11:51:41.872Z,3.13
2018-03-20T11:54:08.189Z,8.13
2018-03-20T11:56:34.513Z,4.07
2018-03-20T11:59:00.775Z,5.87
2018-03-20T12:01:27.067Z,13.33
2018-03-20T12:03:53.443Z,2.80
2018-03-20T12:06:19.826Z,2.60
2018-03-20T12:08:49.095Z,8.77
2018-03-20T12:11:16.180Z,10.03
2018-03-20T12:13:43.320Z,8.18
2018-03-20T12:16:09.981Z,3.60
2018-03-20T12:18:36.265Z,5.70
2018-03-20T12:21:02.572Z,6.33
2018-03-20T12:23:29.669Z,2.60
2018-03-20T12:25:56.826Z,3.80
2018-03-20T12:28:23.199Z,4.05
2018-03-20T12:30:49.563Z,10.30
2018-03-20T12:33:16.677Z,6.60
2018-03-20T12:35:43.175Z,2.28
2018-03-20T12:38:10.247Z,4.18
2018-03-20T12:40:36.649Z,2.10
2018-03-20T12:43:03.707Z,7.30
2018-03-20T12:45:30.037Z,4.47
2018-03-20T12:47:56.364Z,5.72
2018-03-20T12:50:23.385Z,3.85
2018-03-20T12:52:49.696Z,4.40
2018-03-20T12:55:15.988Z,3.95
2018-03-20T12:57:43.030Z,4.55
2018-03-20T13:00:10.084Z,3.20
2018-03-20T13:02:36.355Z,2.67
2018-03-20T13:05:02.661Z,11.10
2018-03-20T13:07:28.938Z,3.20
2018-03-20T13:09:55.200Z,6.53
2018-03-20T13:12:22.232Z,10.67
2018-03-20T13:14:48.470Z,6.60
2018-03-20T13:17:15.490Z,10.80
2018-03-20T13:19:41.745Z,6.97
2018-03-20T13:22:08.753Z,8.27
2018-03-20T13:24:35.027Z,7.67
2018-03-20T13:27:02.035Z,3.57
2018-03-20T13:29:28.357Z,2.40
2018-03-20T13:31:54.628Z,5.63
2018-03-20T13:34:21.640Z,5.50
2018-03-20T13:36:47.898Z,4.70
2018-03-20T13:39:14.167Z,3.93
2018-03-20T13:41:40.449Z,5.00
2018-03-20T13:44:06.701Z,6.00
2018-03-20T13:46:33.675Z,10.00
2018-03-20T13:48:59.943Z,2.13
2018-03-20T13:51:26.189Z,7.37
2018-03-20T13:53:53.251Z,1.80
2018-03-20T13:56:20.269Z,4.87
2018-03-20T13:58:46.684Z,5.22
2018-03-20T14:01:12.945Z,6.05
2018-03-20T14:03:39.944Z,3.95
2018-03-20T14:06:06.211Z,5.47
2018-03-20T14:08:32.484Z,2.70
2018-03-20T14:10:58.781Z,9.20
2018-03-20T14:13:25.026Z,5.10
2018-03-20T14:15:52.011Z,2.23
2018-03-20T14:18:18.286Z,3.50
2018-03-20T14:20:44.540Z,7.07
2018-03-20T14:23:11.552Z,1.73
2018-03-20T14:25:37.809Z,5.53
2018-03-20T14:28:04.076Z,15.32
2018-03-20T14:30:30.345Z,4.30
2018-03-20T14:32:56.693Z,3.60
2018-03-20T14:35:23.700Z,3.97
2018-03-20T14:37:49.987Z,8.63
2018-03-20T14:40:16.989Z,12.60
2018-03-20T14:42:43.252Z,3.60
2018-03-20T14:45:10.282Z,2.53
2018-03-20T14:47:36.653Z,2.60
2018-03-20T14:50:02.937Z,6.87
2018-03-20T14:52:29.193Z,3.77
2018-03-20T14:54:55.495Z,3.23
2018-03-20T14:57:21.768Z,2.30
2018-03-20T14:59:48.812Z,2.40
2018-03-20T15:02:15.820Z,6.50
2018-03-20T15:04:42.057Z,2.37
2018-03-20T15:15:40.190Z,6.90
2018-03-20T15:18:06.488Z,5.57
2018-03-20T15:20:32.804Z,3.03
2018-03-20T15:22:59.079Z,2.23
2018-03-20T15:25:25.409Z,4.17
2018-03-20T15:27:51.712Z,6.23
2018-03-20T15:30:18.080Z,5.60
2018-03-20T15:32:45.115Z,10.20
2018-03-20T15:35:11.372Z,7.57
2018-03-20T15:37:38.410Z,1.92
2018-03-20T15:40:05.468Z,4.70
2018-03-20T15:42:31.753Z,3.25
2018-03-20T15:44:58.027Z,3.83
2018-03-20T15:47:25.026Z,2.33
2018-03-20T15:49:51.568Z,3.65
2018-03-20T15:52:17.837Z,15.07
2018-03-20T15:54:44.109Z,5.18
2018-03-20T15:57:10.388Z,2.42
2018-03-20T15:59:37.391Z,7.70
2018-03-20T16:02:03.681Z,7.28
2018-03-20T16:04:29.948Z,6.00
2018-03-20T16:06:56.237Z,3.20
2018-03-20T16:09:23.263Z,1.25
2018-03-20T16:11:49.516Z,2.58
2018-03-20T16:14:16.547Z,2.50
2018-03-20T16:16:43.601Z,4.30
2018-03-20T16:19:09.866Z,5.40
2018-03-20T16:21:36.149Z,7.87
2018-03-20T16:24:02.403Z,3.47
2018-03-20T16:26:28.711Z,2.12
2018-03-20T16:28:55.737Z,2.60
2018-03-20T16:31:22.057Z,5.13
2018-03-20T16:33:48.328Z,2.53
2018-03-20T16:36:15.341Z,5.87
2018-03-20T16:38:41.629Z,5.00
2018-03-20T16:41:07.885Z,4.53
2018-03-20T16:43:34.170Z,5.00
2018-03-20T16:46:01.186Z,3.85
2018-03-20T16:48:27.447Z,3.58
2018-03-20T16:50:53.769Z,2.25
2018-03-20T16:53:20.964Z,2.22
2018-03-20T16:55:47.228Z,3.50
2018-03-20T16:58:13.553Z,14.10
2018-03-20T17:00:39.808Z,1.83
2018-03-20T17:03:06.836Z,4.03
2018-03-20T17:05:33.096Z,4.82
2018-03-20T17:08:00.079Z,5.70
2018-03-20T17:10:26.369Z,4.50
2018-03-20T17:12:53.456Z,5.93
2018-03-20T17:15:19.717Z,1.98
2018-03-20T17:17:45.980Z,1.60
2018-03-20T17:20:12.989Z,3.35
2018-03-20T17:22:39.300Z,6.18
2018-03-20T17:25:06.268Z,5.65
2018-03-20T17:27:32.546Z,2.50
2018-03-20T17:29:59.108Z,4.43
2018-03-20T17:32:25.417Z,6.12
2018-03-20T17:34:51.677Z,2.37
2018-03-20T17:37:17.971Z,7.87
2018-03-20T17:39:44.225Z,3.45
2018-03-20T17:42:10.480Z,3.08
2018-03-20T17:44:36.763Z,3.33
2018-03-20T17:47:03.049Z,10.23
2018-03-20T17:49:29.566Z,2.20
2018-03-20T17:51:55.839Z,1.50
2018-03-20T17:54:22.126Z,7.87
2018-03-20T17:56:48.380Z,1.60
2018-03-20T17:59:14.857Z,3.50
2018-03-20T18:01:41.215Z,9.00
2018-03-20T18:04:07.493Z,2.83
2018-03-20T18:06:34.567Z,3.17
2018-03-20T18:09:00.841Z,1.60
2018-03-20T18:11:27.299Z,6.90
2018-03-20T18:13:54.598Z,4.65
2018-03-20T18:16:21.160Z,11.50
2018-03-20T18:18:48.212Z,3.75
2018-03-20T18:21:14.689Z,2.05
2018-03-20T18:23:41.774Z,10.25
2018-03-20T18:26:08.471Z,6.57
2018-03-20T18:28:35.512Z,2.70
2018-03-20T18:31:02.819Z,4.50
2018-03-20T18:33:29.323Z,4.53
2018-03-20T18:35:55.813Z,6.35
2018-03-20T18:38:22.248Z,5.05
2018-03-20T18:40:48.676Z,5.45
2018-03-20T18:43:15.551Z,6.22
2018-03-20T18:45:42.776Z,3.10
2018-03-20T18:48:09.086Z,3.90
2018-03-20T18:50:35.392Z,3.45
2018-03-20T18:53:01.680Z,5.75
2018-03-20T18:55:28.525Z,3.65
2018-03-20T18:57:55.018Z,8.57
2018-03-20T19:00:21.631Z,5.72
2018-03-20T19:02:49.075Z,2.50
2018-03-20T19:05:15.385Z,5.37
2018-03-20T19:07:41.649Z,3.00
2018-03-20T19:10:07.905Z,6.95
2018-03-20T19:12:34.375Z,6.60
2018-03-20T19:15:02.011Z,6.75
2018-03-20T19:17:29.024Z,6.60
2018-03-20T19:19:55.413Z,12.15
2018-03-20T19:22:21.694Z,7.55
2018-03-20T19:24:47.993Z,4.97
2018-03-20T19:27:15.073Z,3.20
2018-03-20T19:29:41.617Z,7.72
2018-03-20T19:32:07.898Z,6.47
2018-03-20T19:34:34.153Z,2.60
2018-03-20T19:37:01.231Z,3.90
2018-03-20T19:39:27.499Z,11.55
2018-03-20T19:41:53.821Z,3.65
2018-03-20T19:44:20.085Z,4.95
2018-03-20T19:46:46.345Z,4.43
2018-03-20T19:49:12.618Z,4.30
2018-03-20T19:51:38.881Z,2.60
2018-03-20T19:54:05.199Z,4.05
2018-03-20T19:56:32.188Z,5.32
2018-03-20T19:58:58.458Z,4.07
2018-03-20T20:01:24.744Z,6.85
2018-03-20T20:03:51.205Z,4.80
2018-03-20T20:06:17.498Z,3.87
2018-03-20T20:08:44.500Z,2.97
2018-03-20T20:11:11.542Z,5.20
2018-03-20T20:13:38.088Z,4.62
2018-03-20T20:16:05.104Z,3.72
2018-03-20T20:18:31.351Z,3.30
2018-03-20T20:20:57.622Z,5.25
2018-03-20T20:23:31.051Z,5.53
2018-03-20T20:25:57.359Z,5.12
2018-03-20T20:28:23.609Z,4.45
2018-03-20T20:30:49.872Z,4.00
2018-03-20T20:33:16.173Z,5.68
2018-03-20T20:35:42.434Z,7.47
2018-03-20T20:38:08.977Z,5.60
2018-03-20T20:40:35.226Z,8.27
2018-03-20T20:43:01.484Z,4.55
2018-03-20T20:45:27.772Z,3.30
2018-03-20T20:47:54.794Z,4.47
2018-03-20T20:50:21.101Z,4.85
2018-03-20T20:52:47.388Z,3.08
2018-03-20T20:55:14.453Z,3.08
2018-03-20T20:57:40.723Z,6.50
2018-03-20T21:00:06.976Z,4.82
2018-03-20T21:02:34.122Z,6.35
2018-03-20T21:05:00.399Z,3.70
2018-03-20T21:07:26.664Z,5.28
2018-03-20T21:09:52.941Z,5.07
2018-03-20T21:12:19.197Z,3.12
2018-03-20T21:14:45.800Z,6.22
2018-03-20T21:17:12.789Z,4.80
2018-03-20T21:19:39.050Z,6.45
2018-03-20T21:22:05.309Z,11.38
2018-03-20T21:24:31.568Z,8.82
2018-03-20T21:26:57.854Z,11.23
2018-03-20T21:29:24.852Z,9.68
2018-03-20T21:31:51.154Z,4.18
2018-03-20T21:34:17.413Z,6.12
2018-03-20T21:36:43.736Z,4.78
2018-03-20T21:39:10.012Z,2.92
2018-03-20T21:41:37.042Z,7.37
2018-03-20T21:44:03.778Z,6.95
2018-03-20T21:46:30.026Z,4.75
2018-03-20T21:48:56.292Z,3.70
2018-03-20T21:51:22.631Z,7.43
2018-03-20T21:53:48.861Z,4.40
2018-03-20T21:56:15.495Z,4.75
2018-03-20T21:58:41.748Z,7.30
2018-03-20T22:01:08.021Z,5.55
2018-03-20T22:03:34.332Z,5.20
2018-03-20T22:06:00.590Z,4.78
2018-03-20T22:08:27.613Z,7.10
2018-03-20T22:10:53.921Z,9.55
2018-03-20T22:13:20.188Z,6.30
2018-03-20T22:15:47.210Z,7.20
2018-03-20T22:18:13.551Z,7.78
2018-03-20T22:20:39.887Z,6.97
2018-03-20T22:23:06.156Z,5.43
2018-03-20T22:25:32.490Z,7.22
2018-03-20T22:27:58.817Z,6.18
2018-03-20T22:30:25.135Z,6.78
2018-03-20T22:32:51.377Z,5.57
2018-03-20T22:35:17.646Z,11.73
2018-03-20T22:37:43.900Z,4.97
2018-03-20T22:40:10.418Z,6.37
2018-03-20T22:42:36.689Z,4.00
2018-03-20T22:45:03.777Z,5.57
2018-03-20T22:47:30.805Z,5.40
2018-03-20T22:49:57.049Z,6.55
2018-03-20T22:52:23.324Z,4.05
2018-03-20T22:54:50.397Z,7.25
2018-03-20T22:57:17.762Z,10.88
2018-03-20T22:59:44.020Z,5.30
2018-03-20T23:02:10.397Z,32.83
2018-03-20T23:04:37.398Z,20.30
2018-03-20T23:07:03.653Z,4.65
2018-03-20T23:09:30.101Z,6.57
2018-03-20T23:11:56.357Z,4.53
2018-03-20T23:14:22.605Z,8.90
2018-03-20T23:16:48.900Z,8.43
2018-03-20T23:19:15.200Z,5.18
2018-03-20T23:21:41.481Z,12.30
2018-03-20T23:24:07.736Z,8.85
2018-03-20T23:26:34.002Z,4.60
2018-03-20T23:29:01.737Z,5.55
2018-03-20T23:31:28.064Z,4.95
2018-03-20T23:33:54.381Z,4.43
2018-03-20T23:36:20.637Z,17.98
2018-03-20T23:38:47.621Z,5.57
2018-03-20T23:41:14.628Z,4.37
2018-03-20T23:43:41.020Z,3.58
2018-03-20T23:46:07.261Z,3.75
2018-03-20T23:48:33.516Z,8.70
2018-03-20T23:50:59.752Z,8.13
2018-03-20T23:53:26.022Z,6.62
2018-03-20T23:55:53.053Z,6.45
2018-03-20T23:58:19.293Z,5.43
